Time;durP1;ratioP1;P1;durP2;ratioP2;P2;SDS_P1;SDS_P2;PMS_P1;PMS_P2;Temp;Humidity;BMP_temperature;BMP_pressure;BME280_temperature;BME280_humidity;BME280_pressure;Samples;Min_cycle;Max_cycle;Signal;HPM_P1;HPM_P2
2022/03/18 00:00:54;;;;;;;15.18;6.85;;;2.20;99.90;;;;;;4986889;28;20060;-70
2022/03/18 00:03:20;;;;;;;12.27;6.57;;;2.00;99.90;;;;;;4985056;28;20054;-70
2022/03/18 00:05:46;;;;;;;14.68;6.47;;;1.90;99.90;;;;;;4991160;28;20043;-71
2022/03/18 00:08:12;;;;;;;12.00;6.68;;;1.70;99.90;;;;;;4991448;28;20046;-72
2022/03/18 00:10:38;;;;;;;10.18;5.88;;;1.70;99.90;;;;;;4971953;28;20050;-72
2022/03/18 00:13:04;;;;;;;13.27;6.80;;;1.70;99.90;;;;;;4985382;28;20074;-72
2022/03/18 00:15:30;;;;;;;13.98;6.43;;;1.60;99.90;;;;;;4987507;28;20043;-72
2022/03/18 00:17:56;;;;;;;13.57;6.25;;;1.60;99.90;;;;;;4987635;28;20402;-72
2022/03/18 00:20:22;;;;;;;14.93;6.18;;;1.60;99.90;;;;;;4988706;28;20069;-72
2022/03/18 00:22:49;;;;;;;13.60;6.55;;;1.70;99.90;;;;;;4985533;28;20050;-72
2022/03/18 00:25:16;;;;;;;12.02;6.13;;;1.60;99.90;;;;;;4984958;28;20058;-72
2022/03/18 00:27:43;;;;;;;13.45;6.32;;;1.70;99.90;;;;;;4984743;28;20050;-72
2022/03/18 00:30:11;;;;;;;13.73;6.65;;;1.80;99.90;;;;;;4986117;28;20047;-72
2022/03/18 00:32:41;;;;;;;13.15;6.63;;;1.70;99.90;;;;;;4982110;28;20115;-72
2022/03/18 00:35:08;;;;;;;15.15;6.93;;;1.70;99.90;;;;;;4984268;28;20522;-72
2022/03/18 00:37:34;;;;;;;14.73;6.63;;;1.90;99.90;;;;;;4985226;28;20054;-72
2022/03/18 00:40:01;;;;;;;17.27;6.95;;;1.90;99.90;;;;;;4984117;28;20054;-72
2022/03/18 00:42:26;;;;;;;18.75;7.00;;;2.10;99.90;;;;;;4985726;28;20074;-72
2022/03/18 00:44:52;;;;;;;12.73;6.85;;;2.00;99.90;;;;;;4986626;28;20038;-72
2022/03/18 00:52:47;;;;;;;17.70;7.68;;;1.80;99.90;;;;;;4986032;28;20055;-72
2022/03/18 00:55:13;;;;;;;14.23;6.57;;;2.00;99.90;;;;;;4986187;28;20109;-72
2022/03/18 00:57:39;;;;;;;17.00;7.50;;;1.90;99.90;;;;;;4983728;28;20054;-72
2022/03/18 01:00:06;;;;;;;19.38;7.18;;;1.90;99.90;;;;;;4985250;28;20050;-72
2022/03/18 01:02:32;;;;;;;16.13;6.25;;;2.00;99.90;;;;;;4986080;28;20078;-72
2022/03/18 01:04:58;;;;;;;19.02;7.78;;;2.00;99.90;;;;;;4984539;28;20121;-72
2022/03/18 01:07:23;;;;;;;18.67;8.18;;;1.90;99.90;;;;;;4968803;28;20042;-72
2022/03/18 01:09:49;;;;;;;14.18;6.65;;;2.00;99.90;;;;;;4971685;28;20050;-72
2022/03/18 01:12:15;;;;;;;14.82;8.27;;;1.80;99.90;;;;;;4984376;28;20090;-72
2022/03/18 01:14:41;;;;;;;14.70;8.00;;;1.80;99.90;;;;;;4985821;28;20062;-72
2022/03/18 01:17:07;;;;;;;18.52;7.43;;;1.70;99.90;;;;;;4987435;28;20130;-72
2022/03/18 01:19:33;;;;;;;17.70;7.55;;;1.70;99.90;;;;;;4988620;28;20534;-72
2022/03/18 01:21:58;;;;;;;13.38;7.05;;;2.00;99.90;;;;;;4988346;28;20094;-72
2022/03/18 01:24:24;;;;;;;13.82;7.43;;;1.90;99.90;;;;;;4986846;28;20216;-72
2022/03/18 01:26:50;;;;;;;14.52;6.60;;;1.90;99.90;;;;;;4992015;28;20069;-72
2022/03/18 01:29:15;;;;;;;14.00;7.03;;;1.90;99.90;;;;;;4984339;28;20487;-72
2022/03/18 01:31:42;;;;;;;16.45;7.65;;;1.80;99.90;;;;;;4986414;28;20074;-72
2022/03/18 01:34:08;;;;;;;14.98;7.28;;;1.90;99.90;;;;;;4985234;28;20066;-72
2022/03/18 01:36:34;;;;;;;20.52;9.35;;;1.80;99.90;;;;;;4990756;28;20051;-72
2022/03/18 01:39:00;;;;;;;18.33;7.47;;;2.00;99.90;;;;;;4985792;28;20047;-72
2022/03/18 01:41:26;;;;;;;18.48;8.00;;;2.00;99.90;;;;;;4987476;28;20400;-72
2022/03/18 01:43:52;;;;;;;20.77;8.50;;;2.00;99.90;;;;;;4987598;28;20051;-72
2022/03/18 01:46:18;;;;;;;19.27;8.27;;;1.90;99.90;;;;;;4986598;28;20126;-72
2022/03/18 01:48:45;;;;;;;15.73;8.88;;;2.30;99.90;;;;;;4983409;28;20076;-71
2022/03/18 01:51:15;;;;;;;18.42;8.20;;;2.00;99.90;;;;;;4984969;28;20047;-72
2022/03/18 01:53:43;;;;;;;16.80;8.45;;;2.00;99.90;;;;;;4979478;28;20047;-72
2022/03/18 01:56:09;;;;;;;11.80;7.78;;;1.90;99.90;;;;;;4988063;28;20039;-72
2022/03/18 01:58:35;;;;;;;18.45;7.90;;;1.90;99.90;;;;;;4986616;28;20051;-72
2022/03/18 02:01:01;;;;;;;20.35;9.10;;;1.90;99.90;;;;;;4991634;28;20545;-72
2022/03/18 02:03:27;;;;;;;17.20;8.15;;;2.20;99.90;;;;;;4987147;28;20047;-69
2022/03/18 02:05:53;;;;;;;18.30;7.90;;;2.00;99.90;;;;;;4996686;28;20554;-69
2022/03/18 02:08:20;;;;;;;20.20;9.02;;;1.90;99.90;;;;;;4991370;28;20043;-71
2022/03/18 02:10:46;;;;;;;24.48;9.43;;;1.90;99.90;;;;;;4991962;28;20054;-72
2022/03/18 02:13:12;;;;;;;22.70;9.75;;;1.80;99.90;;;;;;4988763;28;20054;-72
2022/03/18 02:15:38;;;;;;;23.95;10.57;;;1.90;99.90;;;;;;4989161;28;20043;-72
2022/03/18 02:18:05;;;;;;;22.55;11.05;;;1.90;99.90;;;;;;4990524;28;20141;-72
2022/03/18 02:20:32;;;;;;;20.65;10.23;;;2.10;99.90;;;;;;4985531;28;20039;-72
2022/03/18 02:22:58;;;;;;;19.30;9.43;;;1.90;99.90;;;;;;4988062;28;20055;-72
2022/03/18 02:25:24;;;;;;;23.20;10.73;;;1.90;99.90;;;;;;4990514;28;20081;-72
2022/03/18 02:27:59;;;;;;;20.10;10.82;;;2.00;99.90;;;;;;4987901;28;20051;-72
2022/03/18 02:30:28;;;;;;;21.38;9.48;;;2.00;99.90;;;;;;4970756;28;20066;-72
2022/03/18 02:32:54;;;;;;;21.58;11.40;;;1.90;99.90;;;;;;4988964;28;20042;-72
2022/03/18 02:35:20;;;;;;;19.35;10.20;;;2.00;99.90;;;;;;4989939;28;20070;-72
2022/03/18 02:37:46;;;;;;;23.33;10.45;;;2.30;99.90;;;;;;4987687;28;20050;-72
2022/03/18 02:40:14;;;;;;;23.58;9.10;;;2.10;99.90;;;;;;4987537;28;20102;-72
2022/03/18 02:42:41;;;;;;;18.23;9.73;;;2.20;99.90;;;;;;4970945;28;20070;-71
2022/03/18 02:45:08;;;;;;;24.15;9.93;;;2.30;99.90;;;;;;4991031;28;20412;-72
2022/03/18 02:47:34;;;;;;;20.95;9.77;;;2.40;99.90;;;;;;4983197;28;20042;-71
2022/03/18 02:50:00;;;;;;;24.42;10.48;;;2.40;99.90;;;;;;4991546;28;20062;-72
2022/03/18 02:52:25;;;;;;;19.70;9.90;;;2.30;99.90;;;;;;4990909;28;20110;-72
2022/03/18 02:54:51;;;;;;;21.45;9.93;;;2.50;99.90;;;;;;4990937;28;20059;-72
2022/03/18 02:57:17;;;;;;;20.73;9.95;;;2.40;99.90;;;;;;4991537;28;20423;-72
2022/03/18 02:59:43;;;;;;;26.88;10.95;;;2.10;99.90;;;;;;4985463;28;20062;-71
2022/03/18 03:02:08;;;;;;;26.77;10.40;;;2.20;99.90;;;;;;4971029;28;20043;-72
2022/03/18 03:04:34;;;;;;;20.55;10.23;;;2.20;99.90;;;;;;4986317;28;20514;-72
2022/03/18 03:09:44;;;;;;;21.63;10.40;;;2.40;99.90;;;;;;4991543;28;20198;-72
2022/03/18 03:12:10;;;;;;;21.83;10.30;;;2.30;99.90;;;;;;4990412;28;20522;-72
2022/03/18 03:14:36;;;;;;;19.67;10.95;;;2.40;99.90;;;;;;4986160;28;20145;-72
2022/03/18 03:17:03;;;;;;;21.67;10.43;;;2.30;99.90;;;;;;4986273;28;20086;-72
2022/03/18 03:19:29;;;;;;;20.90;10.35;;;2.40;99.90;;;;;;4989244;28;20055;-72
2022/03/18 03:21:55;;;;;;;21.90;10.38;;;2.60;99.90;;;;;;4990661;28;20051;-71
2022/03/18 03:24:21;;;;;;;21.77;10.73;;;2.50;99.90;;;;;;4985478;28;20158;-72
2022/03/18 03:26:47;;;;;;;24.63;10.32;;;2.70;99.90;;;;;;4990907;28;20135;-72
2022/03/18 03:29:12;;;;;;;17.70;9.95;;;2.50;99.90;;;;;;4986682;28;20046;-71
2022/03/18 03:31:38;;;;;;;18.48;10.07;;;2.50;99.90;;;;;;4990605;28;20051;-72
2022/03/18 03:34:04;;;;;;;19.90;10.05;;;2.60;99.90;;;;;;4984826;28;20043;-72
2022/03/18 03:36:29;;;;;;;24.75;10.82;;;2.60;99.90;;;;;;4971074;28;20058;-71
2022/03/18 03:38:55;;;;;;;18.95;14.70;;;2.40;99.90;;;;;;4990034;28;20142;-72
2022/03/18 03:41:22;;;;;;;18.83;10.75;;;2.60;99.90;;;;;;4991572;28;20058;-72
2022/03/18 03:43:48;;;;;;;20.52;10.73;;;2.50;99.90;;;;;;4987607;28;20062;-72
2022/03/18 03:46:14;;;;;;;21.88;11.00;;;2.70;99.90;;;;;;4990849;28;20533;-72
2022/03/18 03:48:40;;;;;;;22.45;8.57;;;2.70;99.90;;;;;;4987399;28;20046;-72
2022/03/18 03:51:06;;;;;;;18.48;9.18;;;2.90;99.90;;;;;;4986175;28;20217;-72
2022/03/18 03:53:31;;;;;;;19.70;10.85;;;2.80;99.90;;;;;;4987870;28;20063;-72
2022/03/18 03:55:57;;;;;;;16.98;8.63;;;2.70;99.90;;;;;;4993054;28;20061;-72
2022/03/18 03:58:23;;;;;;;19.02;8.70;;;2.70;99.90;;;;;;4972458;28;20046;-72
2022/03/18 04:00:48;;;;;;;20.90;14.63;;;2.80;99.90;;;;;;4976513;28;20108;-72
2022/03/18 04:03:14;;;;;;;16.98;7.53;;;2.90;99.90;;;;;;4986242;28;20043;-72
2022/03/18 04:05:40;;;;;;;19.73;8.48;;;2.60;99.90;;;;;;4993338;28;20053;-72
2022/03/18 04:08:06;;;;;;;16.25;8.10;;;2.70;99.90;;;;;;4985415;28;20046;-72
2022/03/18 04:10:32;;;;;;;14.73;7.30;;;2.50;99.90;;;;;;4987811;28;20054;-71
2022/03/18 04:12:57;;;;;;;14.77;7.57;;;2.40;99.90;;;;;;4954820;28;20105;-72
2022/03/18 04:15:23;;;;;;;14.70;7.28;;;2.40;99.90;;;;;;4988075;28;20046;-72
2022/03/18 04:17:50;;;;;;;16.10;7.32;;;2.30;99.90;;;;;;4990502;28;20058;-71
2022/03/18 04:20:18;;;;;;;13.77;7.28;;;2.00;99.90;;;;;;4987115;28;20057;-72
2022/03/18 04:22:44;;;;;;;17.08;7.63;;;2.10;99.90;;;;;;4985493;28;20066;-72
2022/03/18 04:25:11;;;;;;;13.48;7.60;;;2.10;99.90;;;;;;4988385;28;20050;-72
2022/03/18 04:27:38;;;;;;;13.18;7.72;;;2.20;99.90;;;;;;4988368;28;20062;-71
2022/03/18 04:30:05;;;;;;;50.00;46.85;;;1.90;99.90;;;;;;4989309;28;20054;-72
2022/03/18 04:32:31;;;;;;;14.02;7.75;;;1.90;99.90;;;;;;4989567;28;20100;-72
2022/03/18 04:34:57;;;;;;;13.15;7.55;;;1.70;99.90;;;;;;4986653;28;20093;-71
2022/03/18 04:37:23;;;;;;;14.70;7.40;;;1.70;99.90;;;;;;4985750;28;20042;-71
2022/03/18 04:39:49;;;;;;;11.40;7.07;;;1.70;99.90;;;;;;4985985;28;20082;-71
2022/03/18 04:42:15;;;;;;;21.90;8.43;;;1.80;99.90;;;;;;4979132;28;20066;-72
2022/03/18 04:44:40;;;;;;;14.27;8.68;;;1.70;99.90;;;;;;4983982;28;20054;-72
2022/03/18 04:47:06;;;;;;;15.48;8.73;;;1.70;99.90;;;;;;4986244;28;20070;-69
2022/03/18 04:49:32;;;;;;;15.73;8.50;;;1.50;99.90;;;;;;4987196;28;20076;-69
2022/03/18 04:51:57;;;;;;;22.77;9.30;;;1.60;99.90;;;;;;4985863;28;20046;-69
2022/03/18 04:54:23;;;;;;;19.10;8.13;;;1.50;99.90;;;;;;4988554;28;20105;-69
2022/03/18 04:59:33;;;;;;;16.92;9.35;;;1.40;99.90;;;;;;4989869;28;20527;-69
2022/03/18 05:01:59;;;;;;;18.50;8.90;;;1.30;99.90;;;;;;4993095;28;20053;-69
2022/03/18 05:04:24;;;;;;;12.32;7.50;;;1.10;99.90;;;;;;4985836;28;20051;-69
2022/03/18 05:06:50;;;;;;;13.30;8.15;;;1.10;99.90;;;;;;4988996;28;20041;-70
2022/03/18 05:09:16;;;;;;;12.23;7.35;;;1.10;99.90;;;;;;4985204;28;20050;-68
2022/03/18 05:11:41;;;;;;;15.45;8.30;;;1.00;99.90;;;;;;4990140;28;20486;-69
2022/03/18 05:14:07;;;;;;;11.95;8.25;;;0.90;99.90;;;;;;4985285;28;20043;-68
2022/03/18 05:16:33;;;;;;;16.75;8.73;;;1.10;99.90;;;;;;4991813;28;20050;-69
2022/03/18 05:18:59;;;;;;;19.45;9.15;;;1.10;99.90;;;;;;4986580;28;20066;-69
2022/03/18 05:21:24;;;;;;;14.73;9.52;;;1.30;99.90;;;;;;4993935;28;20049;-68
2022/03/18 05:23:50;;;;;;;22.88;9.75;;;1.30;99.90;;;;;;4985241;28;20082;-69
2022/03/18 05:26:16;;;;;;;18.88;9.80;;;1.30;99.90;;;;;;4986984;28;20078;-69
2022/03/18 05:28:42;;;;;;;18.60;9.38;;;1.30;99.90;;;;;;4984673;28;20517;-69
2022/03/18 05:31:09;;;;;;;19.38;9.00;;;1.30;99.90;;;;;;4985313;28;20542;-69
2022/03/18 05:33:34;;;;;;;17.45;8.85;;;1.50;99.90;;;;;;4985867;28;20564;-69
2022/03/18 05:36:00;;;;;;;14.00;8.40;;;1.30;99.90;;;;;;4989817;28;20039;-69
2022/03/18 05:38:26;;;;;;;13.93;8.10;;;1.40;99.90;;;;;;4989298;28;20634;-68
2022/03/18 05:40:52;;;;;;;12.10;7.93;;;1.20;99.90;;;;;;4974892;28;20046;-69
2022/03/18 05:43:18;;;;;;;12.02;7.38;;;1.10;99.90;;;;;;4989138;28;20045;-69
2022/03/18 05:45:45;;;;;;;15.15;8.23;;;1.30;99.90;;;;;;4988741;28;20098;-68
2022/03/18 05:48:10;;;;;;;13.25;8.65;;;1.30;99.90;;;;;;4988104;28;20035;-69
2022/03/18 05:50:36;;;;;;;15.88;8.75;;;1.20;99.90;;;;;;4990616;28;20059;-69
2022/03/18 05:53:02;;;;;;;17.90;10.68;;;1.40;99.90;;;;;;4987372;28;20075;-69
2022/03/18 05:56:52;;;;;;;15.18;9.45;;;1.30;99.90;;;;;;4988056;28;20062;-69
2022/03/18 05:58:17;;;;;;;20.83;9.98;;;1.40;99.90;;;;;;4989810;28;20046;-69
2022/03/18 06:00:44;;;;;;;19.52;10.40;;;1.50;99.90;;;;;;4993914;28;20055;-69
2022/03/18 06:03:10;;;;;;;21.83;10.05;;;1.40;99.90;;;;;;4958508;28;20587;-70
2022/03/18 06:05:36;;;;;;;15.57;10.02;;;1.60;99.90;;;;;;4996933;28;20249;-69
2022/03/18 06:13:32;;;;;;;14.68;9.38;;;1.50;99.90;;;;;;4984299;28;20058;-70
2022/03/18 06:15:58;;;;;;;12.20;8.65;;;1.20;99.90;;;;;;4990504;28;20042;-70
2022/03/18 06:18:23;;;;;;;17.65;10.00;;;1.20;99.90;;;;;;4982244;28;20118;-70
2022/03/18 06:20:50;;;;;;;16.70;11.13;;;1.20;99.90;;;;;;4978406;28;20490;-70
2022/03/18 06:23:16;;;;;;;12.45;8.38;;;1.40;99.90;;;;;;4968190;28;20046;-71
2022/03/18 06:25:43;;;;;;;14.85;9.85;;;1.50;99.90;;;;;;4980780;28;20107;-71
2022/03/18 06:28:09;;;;;;;14.02;9.77;;;1.30;99.90;;;;;;4988108;28;20427;-71
2022/03/18 06:30:35;;;;;;;22.25;11.77;;;1.50;99.90;;;;;;4974405;28;20043;-70
2022/03/18 06:33:00;;;;;;;20.63;13.07;;;1.50;99.90;;;;;;4969288;28;20066;-70
2022/03/18 06:35:26;;;;;;;20.08;11.02;;;1.50;99.90;;;;;;4986312;28;20039;-70
2022/03/18 06:37:52;;;;;;;19.13;11.38;;;1.80;99.90;;;;;;4979955;28;20121;-70
2022/03/18 06:40:17;;;;;;;20.10;10.82;;;1.70;99.90;;;;;;4985953;28;20050;-71
2022/03/18 06:42:43;;;;;;;18.88;10.77;;;1.90;99.90;;;;;;4980369;28;20069;-70
2022/03/18 06:45:10;;;;;;;21.13;12.88;;;1.90;99.90;;;;;;4984979;28;20047;-70
2022/03/18 06:47:35;;;;;;;26.02;12.98;;;2.00;99.90;;;;;;4983145;28;20058;-70
2022/03/18 06:50:01;;;;;;;21.73;12.00;;;2.20;99.90;;;;;;4989472;28;20065;-71
2022/03/18 06:52:27;;;;;;;19.00;12.60;;;2.20;99.90;;;;;;4996925;28;20242;-71
2022/03/18 06:54:53;;;;;;;24.58;14.02;;;2.40;99.90;;;;;;4988898;28;20046;-71
2022/03/18 06:57:19;;;;;;;24.27;15.60;;;2.50;99.90;;;;;;4980175;28;20057;-70
2022/03/18 06:59:45;;;;;;;26.88;18.25;;;2.60;99.90;;;;;;4975495;28;20117;-70
2022/03/18 07:02:13;;;;;;;24.50;16.05;;;2.60;99.90;;;;;;4981268;28;20061;-69
2022/03/18 07:04:39;;;;;;;27.63;16.92;;;2.70;99.90;;;;;;4984039;28;20114;-70
2022/03/18 07:07:06;;;;;;;25.83;16.17;;;3.00;99.90;;;;;;4987237;28;20525;-70
2022/03/18 07:09:32;;;;;;;29.70;19.27;;;3.10;99.90;;;;;;4984241;28;20317;-70
2022/03/18 07:11:57;;;;;;;26.05;17.80;;;3.30;99.90;;;;;;4983755;28;20185;-71
2022/03/18 07:14:23;;;;;;;26.08;16.23;;;3.30;99.90;;;;;;4994119;28;20051;-70
2022/03/18 07:19:33;;;;;;;25.13;14.10;;;3.40;99.90;;;;;;4989941;28;20058;-70
2022/03/18 07:21:59;;;;;;;14.57;11.68;;;3.30;99.90;;;;;;4977764;28;20074;-70
2022/03/18 07:24:24;;;;;;;19.30;11.75;;;3.40;99.90;;;;;;4989865;28;20065;-71
2022/03/18 07:26:50;;;;;;;25.10;16.00;;;3.50;99.90;;;;;;4978928;28;20121;-70
2022/03/18 07:29:16;;;;;;;24.20;14.88;;;3.50;99.90;;;;;;4989981;28;20034;-71
2022/03/18 07:31:41;;;;;;;24.20;14.80;;;3.80;99.90;;;;;;4979952;28;20113;-71
2022/03/18 07:34:07;;;;;;;19.95;16.48;;;3.90;99.90;;;;;;4966860;28;20047;-71
2022/03/18 07:36:33;;;;;;;29.15;16.30;;;3.90;99.90;;;;;;4971849;28;20442;-72
2022/03/18 07:38:59;;;;;;;22.95;16.50;;;4.10;99.90;;;;;;4980550;28;20466;-72
2022/03/18 07:41:25;;;;;;;27.10;16.60;;;3.90;99.90;;;;;;4977975;28;20047;-72
2022/03/18 07:43:50;;;;;;;24.13;16.50;;;4.10;99.90;;;;;;4996148;28;20046;-72
2022/03/18 07:46:17;;;;;;;26.92;17.13;;;4.10;99.90;;;;;;4973384;28;20062;-74
2022/03/18 07:48:44;;;;;;;26.90;16.33;;;4.30;99.90;;;;;;4978454;28;20059;-74
2022/03/18 07:51:11;;;;;;;27.40;18.67;;;4.40;99.90;;;;;;4973725;28;20046;-74
2022/03/18 07:53:37;;;;;;;34.53;22.17;;;4.50;99.90;;;;;;4982041;28;20507;-73
2022/03/18 07:56:04;;;;;;;31.75;22.52;;;4.40;99.90;;;;;;4969036;28;20066;-71
2022/03/18 07:58:30;;;;;;;33.50;20.80;;;4.80;99.90;;;;;;4965603;28;20487;-71
2022/03/18 08:00:56;;;;;;;29.67;19.05;;;4.80;99.90;;;;;;4970729;28;20539;-71
2022/03/18 08:03:22;;;;;;;34.95;20.60;;;5.00;99.90;;;;;;4984981;28;20065;-71
2022/03/18 08:05:47;;;;;;;28.65;19.92;;;5.30;99.90;;;;;;4971363;28;20049;-70
2022/03/18 08:08:13;;;;;;;28.67;19.92;;;5.20;99.90;;;;;;4988068;28;20146;-70
2022/03/18 08:10:39;;;;;;;25.33;19.30;;;5.50;99.90;;;;;;4983245;28;20111;-70
2022/03/18 08:13:05;;;;;;;38.05;22.33;;;5.50;99.90;;;;;;4976640;28;20058;-70
2022/03/18 08:15:31;;;;;;;32.97;20.63;;;5.60;99.90;;;;;;4985130;28;20042;-70
2022/03/18 08:18:09;;;;;;;32.03;21.70;;;5.60;99.90;;;;;;5113425;27;20390;-68
2022/03/18 08:20:54;;;;;;;30.33;19.27;;;5.90;99.90;;;;;;5113534;27;20045;-67
2022/03/18 08:23:20;;;;;;;29.17;20.52;;;5.80;99.90;;;;;;5080659;28;20500;-67
2022/03/18 08:25:46;;;;;;;33.28;21.50;;;6.00;99.90;;;;;;5110630;28;20395;-67
2022/03/18 08:28:12;;;;;;;27.92;20.88;;;5.90;99.90;;;;;;5116010;27;20048;-68
2022/03/18 08:30:39;;;;;;;31.52;22.38;;;6.00;99.90;;;;;;5072170;28;20552;-68
2022/03/18 08:33:05;;;;;;;37.65;22.45;;;6.30;99.90;;;;;;5085958;28;20064;-68
2022/03/18 08:35:32;;;;;;;31.80;22.27;;;6.40;99.90;;;;;;5073370;28;20047;-67
2022/03/18 08:37:58;;;;;;;32.95;21.15;;;6.40;99.90;;;;;;5082912;28;20060;-67
2022/03/18 08:40:27;;;;;;;36.85;23.15;;;6.40;99.90;;;;;;5074800;28;20150;-67
2022/03/18 08:42:54;;;;;;;35.80;21.67;;;6.60;99.90;;;;;;5081857;28;20129;-67
2022/03/18 08:45:21;;;;;;;34.13;21.45;;;6.80;99.90;;;;;;5074014;28;20053;-67
2022/03/18 08:47:47;;;;;;;34.42;21.00;;;6.80;99.90;;;;;;5087090;28;20537;-67
2022/03/18 08:50:13;;;;;;;33.13;21.20;;;6.90;99.90;;;;;;5111457;27;20108;-68
2022/03/18 08:52:40;;;;;;;31.98;21.35;;;6.80;99.90;;;;;;5084738;28;20043;-68
2022/03/18 08:55:07;;;;;;;36.72;22.00;;;6.80;99.90;;;;;;5075581;28;20041;-69
2022/03/18 08:57:36;;;;;;;30.63;19.90;;;7.10;99.90;;;;;;5081618;28;20146;-74
2022/03/18 09:00:07;;;;;;;31.58;20.83;;;7.10;99.90;;;;;;5079739;28;20044;-70
2022/03/18 09:02:34;;;;;;;35.50;21.00;;;7.30;99.90;;;;;;5096831;28;20099;-71
2022/03/18 09:04:59;;;;;;;32.75;20.35;;;7.40;99.90;;;;;;5043796;28;20053;-71
2022/03/18 09:07:26;;;;;;;36.72;21.27;;;7.60;99.90;;;;;;5086036;28;20052;-71
2022/03/18 09:09:51;;;;;;;33.90;20.80;;;7.70;99.90;;;;;;5050625;28;20136;-69
2022/03/18 09:12:18;;;;;;;31.13;21.63;;;7.90;99.90;;;;;;5060249;28;20111;-69
2022/03/18 09:14:44;;;;;;;30.70;18.55;;;8.00;99.90;;;;;;5058812;28;20042;-67
2022/03/18 09:17:10;;;;;;;31.67;19.38;;;8.10;99.90;;;;;;5051227;28;20032;-68
2022/03/18 09:19:37;;;;;;;32.28;19.92;;;8.10;99.90;;;;;;5061327;28;20049;-66
2022/03/18 09:22:07;;;;;;;30.65;18.20;;;8.20;99.90;;;;;;5059804;28;20048;-67
2022/03/18 09:24:34;;;;;;;31.23;18.02;;;8.40;99.90;;;;;;5051329;28;20592;-67
2022/03/18 09:27:00;;;;;;;27.65;17.67;;;8.50;99.90;;;;;;5048513;28;20094;-67
2022/03/18 09:29:26;;;;;;;28.90;17.33;;;8.60;99.90;;;;;;5045470;28;20089;-67
2022/03/18 09:31:53;;;;;;;30.55;18.63;;;8.60;99.90;;;;;;5058535;28;20060;-69
2022/03/18 09:34:25;;;;;;;34.35;17.70;;;8.70;99.90;;;;;;5022879;28;20053;-70
2022/03/18 09:36:56;;;;;;;31.08;17.52;;;8.90;99.90;;;;;;5066828;28;20072;-70
2022/03/18 09:39:23;;;;;;;29.00;17.25;;;8.90;99.90;;;;;;5083516;28;20049;-70
2022/03/18 09:41:49;;;;;;;26.58;16.45;;;9.10;99.90;;;;;;5049712;28;20126;-71
2022/03/18 09:44:15;;;;;;;33.15;16.98;;;9.30;99.90;;;;;;5051810;28;20057;-71
2022/03/18 09:46:41;;;;;;;27.02;16.48;;;9.40;99.90;;;;;;5062941;28;20045;-71
2022/03/18 09:49:11;;;;;;;27.95;17.33;;;9.40;99.90;;;;;;5045280;28;20041;-68
2022/03/18 09:51:42;;;;;;;30.17;18.02;;;9.60;99.90;;;;;;5023938;28;20045;-69
2022/03/18 09:54:10;;;;;;;30.67;16.42;;;9.50;99.90;;;;;;5042993;28;20042;-70
2022/03/18 09:56:42;;;;;;;29.60;16.90;;;9.70;99.90;;;;;;5028517;28;20040;-69
2022/03/18 09:59:08;;;;;;;28.98;15.85;;;9.80;99.90;;;;;;5064849;28;20549;-69
2022/03/18 10:01:34;;;;;;;27.92;15.27;;;9.90;99.90;;;;;;5056400;28;20053;-70
2022/03/18 10:04:07;;;;;;;27.23;16.75;;;9.80;99.90;;;;;;5051576;28;20061;-69
2022/03/18 10:06:34;;;;;;;27.70;15.60;;;9.90;99.90;;;;;;5049283;28;20128;-69
2022/03/18 10:09:01;;;;;;;27.45;17.27;;;10.10;99.90;;;;;;5067934;28;20088;-68
2022/03/18 10:11:31;;;;;;;32.72;17.20;;;10.10;99.90;;;;;;5045534;28;20044;-67
2022/03/18 10:14:08;;;;;;;24.63;15.40;;;10.20;99.90;;;;;;5065139;28;20049;-67
2022/03/18 10:16:42;;;;;;;26.42;16.20;;;10.20;99.90;;;;;;5057582;28;20049;-67
2022/03/18 10:19:16;;;;;;;26.25;15.88;;;10.20;99.90;;;;;;5054019;28;20069;-68
2022/03/18 10:21:59;;;;;;;25.05;15.45;;;10.20;99.90;;;;;;5081068;28;20067;-69
2022/03/18 10:24:31;;;;;;;27.55;16.30;;;10.20;99.90;;;;;;5066953;28;20057;-69
2022/03/18 10:27:13;;;;;;;29.30;16.45;;;10.10;99.90;;;;;;5035585;28;20060;-68
2022/03/18 10:29:53;;;;;;;26.85;16.33;;;10.20;99.90;;;;;;5078818;28;20056;-69
2022/03/18 10:32:21;;;;;;;28.20;16.70;;;10.30;99.90;;;;;;5043839;28;20106;-68
2022/03/18 10:37:46;;;;;;;29.38;17.02;;;10.30;99.90;;;;;;5056922;28;20130;-67
2022/03/18 10:40:13;;;;;;;26.98;16.30;;;10.40;99.90;;;;;;5059986;28;20048;-65
2022/03/18 10:42:39;;;;;;;23.15;15.23;;;10.50;99.90;;;;;;5046199;28;20045;-65
2022/03/18 10:45:07;;;;;;;25.27;15.75;;;10.70;99.90;;;;;;5044828;28;20052;-65
2022/03/18 10:47:35;;;;;;;24.58;15.57;;;10.70;99.90;;;;;;5033447;28;20036;-67
2022/03/18 10:50:13;;;;;;;23.77;14.27;;;10.90;99.90;;;;;;5043834;28;20065;-66
2022/03/18 10:53:01;;;;;;;24.42;14.63;;;10.90;99.90;;;;;;5043140;28;20048;-68
2022/03/18 10:55:39;;;;;;;24.13;14.57;;;11.00;99.90;;;;;;5057993;28;20080;-74
2022/03/18 10:58:15;;;;;;;21.27;14.07;;;11.10;99.90;;;;;;5053922;28;20045;-67
2022/03/18 11:00:50;;;;;;;23.75;14.85;;;11.10;99.90;;;;;;5024990;28;20076;-65
2022/03/18 11:03:16;;;;;;;25.58;14.48;;;11.20;99.90;;;;;;5025363;28;20171;-69
2022/03/18 11:05:50;;;;;;;24.30;13.88;;;11.20;99.90;;;;;;5046326;28;20151;-74
2022/03/18 11:08:21;;;;;;;21.85;13.35;;;11.30;99.90;;;;;;5042119;28;20045;-64
2022/03/18 11:13:48;;;;;;;27.55;14.02;;;11.40;99.90;;;;;;5038217;28;20055;-67
2022/03/18 11:16:17;;;;;;;22.92;13.05;;;11.50;99.90;;;;;;5035119;28;20053;-66
2022/03/18 11:18:45;;;;;;;27.60;12.98;;;11.50;99.90;;;;;;5046858;28;20055;-66
2022/03/18 11:21:11;;;;;;;22.83;11.60;;;11.60;99.90;;;;;;5038864;28;20404;-67
2022/03/18 11:23:41;;;;;;;23.80;13.40;;;11.60;99.90;;;;;;5043991;28;20048;-68
2022/03/18 11:26:07;;;;;;;17.23;11.35;;;11.70;99.90;;;;;;5040310;28;20041;-68
2022/03/18 11:28:33;;;;;;;21.25;12.55;;;11.90;99.90;;;;;;5039810;28;20064;-69
2022/03/18 11:31:10;;;;;;;25.33;13.18;;;11.90;99.90;;;;;;5036778;28;20034;-69
2022/03/18 11:33:38;;;;;;;24.50;13.13;;;11.90;99.90;;;;;;5023218;28;20080;-69
2022/03/18 11:36:09;;;;;;;23.48;12.93;;;11.90;99.90;;;;;;5054186;28;20041;-69
2022/03/18 11:38:48;;;;;;;22.27;11.90;;;12.10;99.90;;;;;;5042903;28;20056;-68
2022/03/18 11:41:16;;;;;;;22.77;11.95;;;12.20;99.90;;;;;;5038089;28;20064;-68
2022/03/18 11:43:42;;;;;;;22.55;12.38;;;12.20;99.90;;;;;;5059867;28;20139;-67
2022/03/18 11:46:14;;;;;;;22.23;12.13;;;12.40;99.90;;;;;;5057608;28;20064;-67
2022/03/18 11:48:51;;;;;;;19.95;9.88;;;12.50;99.90;;;;;;5043278;28;20154;-68
2022/03/18 11:51:37;;;;;;;17.80;10.00;;;12.60;99.90;;;;;;5035057;28;20074;-68
2022/03/18 11:54:13;;;;;;;16.02;8.38;;;12.70;99.90;;;;;;5079605;28;20132;-67
2022/03/18 11:56:50;;;;;;;19.92;8.32;;;12.80;99.90;;;;;;5040658;28;20126;-67
2022/03/18 11:59:25;;;;;;;16.75;8.20;;;13.00;99.90;;;;;;5042095;28;20045;-68
2022/03/18 12:01:55;;;;;;;15.90;8.90;;;13.10;99.90;;;;;;5041183;28;20077;-67
2022/03/18 12:04:33;;;;;;;17.20;8.70;;;13.10;99.90;;;;;;5027297;28;20045;-66
2022/03/18 12:07:21;;;;;;;18.17;9.65;;;13.30;99.90;;;;;;5040968;28;20050;-67
2022/03/18 12:09:55;;;;;;;18.45;9.50;;;13.40;99.90;;;;;;5025990;28;20061;-67
2022/03/18 12:12:24;;;;;;;17.63;7.93;;;13.50;99.90;;;;;;5036479;28;20072;-67
2022/03/18 12:14:53;;;;;;;13.57;8.23;;;13.50;99.90;;;;;;5035578;28;20046;-70
2022/03/18 12:17:19;;;;;;;17.55;8.73;;;13.60;99.90;;;;;;5072591;28;20112;-68
2022/03/18 12:19:52;;;;;;;14.55;8.68;;;13.80;99.90;;;;;;5076044;28;20080;-68
2022/03/18 12:22:19;;;;;;;15.68;8.55;;;13.80;99.90;;;;;;5043146;28;20080;-68
2022/03/18 12:24:48;;;;;;;17.23;7.63;;;14.00;99.90;;;;;;5057709;28;20102;-69
2022/03/18 12:27:17;;;;;;;17.10;6.97;;;14.20;99.90;;;;;;5042119;28;20041;-68
2022/03/18 12:29:43;;;;;;;12.02;6.88;;;14.30;99.90;;;;;;5035575;28;20050;-68
2022/03/18 12:32:10;;;;;;;17.42;7.45;;;14.40;99.90;;;;;;5075271;28;20045;-69
2022/03/18 12:34:46;;;;;;;17.10;7.85;;;14.60;99.90;;;;;;5037868;28;20030;-69
2022/03/18 12:37:21;;;;;;;16.80;8.23;;;14.90;99.90;;;;;;5043124;28;20079;-69
2022/03/18 12:40:06;;;;;;;18.88;8.75;;;15.00;99.90;;;;;;5042807;28;20124;-70
2022/03/18 12:42:45;;;;;;;16.20;8.18;;;15.10;99.90;;;;;;5034276;28;20042;-67
2022/03/18 12:45:11;;;;;;;16.27;7.78;;;15.30;99.90;;;;;;5071925;28;20057;-69
2022/03/18 12:47:38;;;;;;;14.18;6.97;;;15.50;99.90;;;;;;5040146;28;20049;-67
2022/03/18 12:50:04;;;;;;;15.43;6.85;;;15.60;99.90;;;;;;5037971;28;20042;-67
2022/03/18 12:52:30;;;;;;;17.92;8.23;;;15.80;99.90;;;;;;5039038;28;20068;-67
2022/03/18 12:55:24;;;;;;;15.35;7.20;;;16.10;99.90;;;;;;5042371;28;20053;-67
2022/03/18 12:57:50;;;;;;;12.52;3.90;;;16.20;99.90;;;;;;5048724;28;20057;-67
2022/03/18 13:00:21;;;;;;;14.13;4.57;;;16.20;99.90;;;;;;5036890;28;20071;-68
2022/03/18 13:02:51;;;;;;;12.25;4.78;;;16.20;99.90;;;;;;5042297;28;20081;-68
2022/03/18 13:05:19;;;;;;;12.00;5.05;;;16.40;99.90;;;;;;5044098;28;20080;-68